Time;durP1;ratioP1;P1;durP2;ratioP2;P2;SDS_P1;SDS_P2;PMS_P1;PMS_P2;Temp;Humidity;BMP_temperature;BMP_pressure;BME280_temperature;BME280_humidity;BME280_pressure;Samples;Min_cycle;Max_cycle;Signal;HPM_P1;HPM_P2
2023/06/10 00:01:01;;;;;;;9.83;6.60;;;16.40;12.50;;;;;;4994309;28;20418;-69
2023/06/10 00:03:26;;;;;;;9.37;7.83;;;16.40;12.50;;;;;;4994062;28;20653;-69
2023/06/10 00:05:52;;;;;;;9.50;7.87;;;16.30;12.70;;;;;;4994273;28;20200;-68
2023/06/10 00:08:19;;;;;;;8.70;7.87;;;16.40;12.90;;;;;;4994154;28;20177;-68
2023/06/10 00:10:45;;;;;;;8.63;7.83;;;16.40;12.50;;;;;;4994098;28;20235;-69
2023/06/10 00:13:11;;;;;;;8.67;7.87;;;16.30;12.80;;;;;;4993659;28;20419;-69
2023/06/10 00:15:36;;;;;;;7.47;6.77;;;16.20;12.70;;;;;;4994037;28;20283;-69
2023/06/10 00:18:03;;;;;;;7.90;7.10;;;16.10;13.10;;;;;;4994065;28;20667;-67
2023/06/10 00:20:30;;;;;;;8.33;7.53;;;16.10;13.90;;;;;;4994068;28;20238;-69
2023/06/10 00:22:56;;;;;;;7.40;6.70;;;16.10;13.90;;;;;;4993580;28;20828;-68
2023/06/10 00:25:22;;;;;;;9.70;6.93;;;16.00;13.80;;;;;;4993798;28;20439;-68
2023/06/10 00:27:48;;;;;;;7.87;7.07;;;15.90;13.90;;;;;;4993638;28;20462;-68
2023/06/10 00:30:13;;;;;;;9.57;8.57;;;15.90;14.60;;;;;;4993216;28;20647;-68
2023/06/10 00:32:39;;;;;;;8.90;7.10;;;15.90;14.60;;;;;;4993430;28;20510;-68
2023/06/10 00:35:06;;;;;;;10.03;8.23;;;15.80;15.10;;;;;;4993420;28;20509;-68
2023/06/10 00:37:32;;;;;;;8.50;6.50;;;15.80;15.70;;;;;;4993659;28;20175;-69
2023/06/10 00:39:58;;;;;;;8.60;7.70;;;15.80;15.20;;;;;;4993591;28;20848;-68
2023/06/10 00:42:24;;;;;;;17.50;6.40;;;15.80;15.40;;;;;;4993035;28;20495;-69
2023/06/10 00:44:50;;;;;;;7.30;6.00;;;15.80;15.80;;;;;;4993438;28;20533;-69
2023/06/10 00:47:16;;;;;;;9.90;8.10;;;15.70;16.30;;;;;;4993437;28;20416;-68
2023/06/10 00:49:42;;;;;;;7.90;6.90;;;15.60;16.80;;;;;;4993444;28;20551;-68
2023/06/10 00:52:08;;;;;;;8.40;6.97;;;15.60;16.90;;;;;;4993076;28;20427;-68
2023/06/10 00:54:34;;;;;;;7.83;6.80;;;15.60;16.60;;;;;;4993192;28;20434;-69
2023/06/10 00:57:02;;;;;;;7.27;6.57;;;15.60;16.30;;;;;;4993144;28;20495;-69
2023/06/10 00:59:30;;;;;;;8.10;6.57;;;15.60;16.30;;;;;;4993269;28;20173;-68
2023/06/10 01:02:00;;;;;;;6.03;5.43;;;15.60;17.20;;;;;;4992993;28;20899;-69
2023/06/10 01:04:26;;;;;;;8.63;7.57;;;15.60;17.10;;;;;;4993335;28;20412;-69
2023/06/10 01:07:21;;;;;;;7.40;6.70;;;15.50;17.80;;;;;;4993249;28;20968;-68
2023/06/10 01:10:23;;;;;;;8.27;6.73;;;15.60;17.90;;;;;;4993213;28;20173;-69
2023/06/10 01:13:11;;;;;;;6.30;5.70;;;15.50;17.80;;;;;;4992679;28;20415;-68
2023/06/10 01:15:38;;;;;;;8.27;7.40;;;15.40;18.10;;;;;;4992856;28;20437;-68
2023/06/10 01:18:04;;;;;;;9.37;8.40;;;15.40;18.60;;;;;;4992841;28;21069;-68
2023/06/10 01:20:32;;;;;;;10.37;7.47;;;15.40;18.50;;;;;;4992936;28;20414;-68
2023/06/10 01:23:02;;;;;;;8.80;7.90;;;15.30;18.60;;;;;;4992517;28;20459;-68
2023/06/10 01:25:29;;;;;;;8.53;7.53;;;15.20;19.30;;;;;;4992712;28;20999;-68
2023/06/10 01:28:18;;;;;;;10.27;7.87;;;15.20;19.70;;;;;;4992723;28;20410;-68
2023/06/10 01:31:11;;;;;;;7.77;6.97;;;15.30;19.50;;;;;;4991801;28;20478;-68
2023/06/10 01:33:41;;;;;;;9.13;7.50;;;15.20;19.30;;;;;;4992591;28;20419;-68
2023/06/10 01:36:07;;;;;;;7.67;7.00;;;15.20;20.00;;;;;;4992504;28;20480;-69
2023/06/10 01:38:43;;;;;;;9.03;7.27;;;15.20;19.60;;;;;;4992563;28;20429;-69
2023/06/10 01:41:10;;;;;;;11.67;7.97;;;15.10;19.70;;;;;;4992570;28;20489;-68
2023/06/10 01:43:38;;;;;;;8.70;7.53;;;15.00;20.20;;;;;;4991590;28;20506;-68
2023/06/10 01:46:03;;;;;;;8.30;7.40;;;15.10;20.60;;;;;;4992444;28;20484;-68
2023/06/10 01:48:29;;;;;;;10.63;7.40;;;15.00;20.40;;;;;;4992526;28;20430;-69
2023/06/10 01:50:55;;;;;;;7.70;6.90;;;15.00;21.30;;;;;;4992520;28;20619;-68
2023/06/10 01:53:22;;;;;;;8.60;7.80;;;14.90;21.70;;;;;;4992216;28;20550;-69
2023/06/10 01:55:48;;;;;;;9.63;8.60;;;14.90;21.70;;;;;;4992401;28;20437;-68
2023/06/10 01:58:13;;;;;;;8.97;8.07;;;14.80;22.50;;;;;;4991149;28;20415;-68
2023/06/10 02:00:39;;;;;;;8.00;7.30;;;14.80;22.20;;;;;;4992483;28;20437;-68
2023/06/10 02:03:04;;;;;;;9.57;8.67;;;14.70;22.90;;;;;;4992094;28;20297;-67
2023/06/10 02:05:30;;;;;;;10.07;8.20;;;14.80;23.20;;;;;;4992313;28;20223;-68
2023/06/10 02:07:56;;;;;;;8.70;7.67;;;14.70;23.90;;;;;;4992296;28;20180;-67
2023/06/10 02:10:21;;;;;;;9.00;8.07;;;14.60;24.60;;;;;;4992313;28;20257;-68
2023/06/10 02:12:47;;;;;;;9.80;8.20;;;14.60;25.50;;;;;;4992192;28;20664;-68
2023/06/10 02:15:12;;;;;;;9.23;8.10;;;14.60;25.80;;;;;;4992392;28;20195;-68
2023/06/10 02:17:38;;;;;;;7.93;7.17;;;14.50;25.70;;;;;;4992222;28;20261;-68
2023/06/10 02:20:06;;;;;;;9.93;8.97;;;14.50;25.70;;;;;;4992290;28;20677;-69
2023/06/10 02:22:32;;;;;;;10.10;8.77;;;14.50;25.70;;;;;;4990616;28;20215;-68
2023/06/10 02:24:58;;;;;;;9.70;7.57;;;14.50;25.70;;;;;;4992132;28;20434;-68
2023/06/10 02:27:24;;;;;;;11.63;9.50;;;14.50;25.70;;;;;;4992354;28;20466;-68
2023/06/10 02:29:50;;;;;;;8.87;7.47;;;14.50;25.70;;;;;;4992142;28;20182;-68
2023/06/10 02:32:15;;;;;;;10.47;8.10;;;14.50;26.00;;;;;;4991835;28;20423;-68
2023/06/10 02:34:42;;;;;;;9.50;8.30;;;14.40;27.80;;;;;;4991902;28;20212;-68
2023/06/10 02:37:08;;;;;;;10.20;8.73;;;14.40;28.80;;;;;;4992192;28;20183;-68
2023/06/10 02:39:34;;;;;;;7.40;6.70;;;14.30;28.90;;;;;;4990833;28;20959;-68
2023/06/10 02:41:59;;;;;;;9.80;7.63;;;14.30;29.70;;;;;;4991722;28;20457;-68
2023/06/10 02:44:25;;;;;;;8.43;7.63;;;14.20;29.60;;;;;;4991928;28;20601;-68
2023/06/10 02:46:50;;;;;;;12.07;8.10;;;14.20;29.70;;;;;;4991903;28;20708;-69
2023/06/10 02:49:16;;;;;;;8.10;7.37;;;14.20;29.70;;;;;;4991986;28;20185;-68
2023/06/10 02:51:41;;;;;;;10.93;9.83;;;14.20;29.60;;;;;;4991655;28;20182;-69
2023/06/10 02:54:07;;;;;;;9.57;8.57;;;14.30;28.90;;;;;;4993445;28;20179;-68
2023/06/10 02:56:33;;;;;;;8.30;7.50;;;14.30;29.70;;;;;;4995482;28;20696;-68
2023/06/10 02:58:59;;;;;;;8.67;7.87;;;14.30;29.70;;;;;;4995484;28;20558;-68
2023/06/10 03:01:24;;;;;;;10.00;7.83;;;14.30;30.80;;;;;;4994022;28;20209;-68
2023/06/10 03:03:50;;;;;;;8.03;7.20;;;14.20;29.70;;;;;;4993958;28;20426;-68
2023/06/10 03:06:16;;;;;;;10.60;8.17;;;14.20;30.30;;;;;;4995345;28;20185;-68
2023/06/10 03:08:41;;;;;;;10.90;8.17;;;14.10;29.70;;;;;;4995289;28;20181;-68
2023/06/10 03:11:07;;;;;;;9.07;8.07;;;14.10;30.30;;;;;;4994253;28;20188;-68
2023/06/10 03:13:32;;;;;;;11.07;7.90;;;14.00;31.20;;;;;;4995034;28;20258;-68
2023/06/10 03:15:58;;;;;;;9.17;8.27;;;14.00;30.60;;;;;;4995547;28;20312;-67
2023/06/10 03:18:27;;;;;;;10.97;9.60;;;14.00;30.90;;;;;;4995267;28;20648;-68
2023/06/10 03:20:54;;;;;;;12.80;8.07;;;14.00;33.40;;;;;;4994987;28;20177;-67
2023/06/10 03:23:20;;;;;;;9.07;8.17;;;14.10;32.10;;;;;;4994930;28;20432;-68
2023/06/10 03:25:46;;;;;;;9.33;7.60;;;14.00;31.90;;;;;;4994968;28;20468;-68
2023/06/10 03:28:11;;;;;;;8.20;7.40;;;14.00;32.80;;;;;;4994947;28;20427;-68
2023/06/10 03:30:37;;;;;;;7.87;7.07;;;14.00;32.30;;;;;;4994999;28;20210;-67
2023/06/10 03:33:03;;;;;;;9.30;8.00;;;14.00;32.10;;;;;;4993417;28;20554;-68
2023/06/10 03:35:29;;;;;;;9.50;8.50;;;13.90;32.20;;;;;;4994500;28;20580;-68
2023/06/10 03:37:55;;;;;;;9.60;8.50;;;13.90;32.30;;;;;;4993625;28;20193;-68
2023/06/10 03:40:21;;;;;;;11.00;8.80;;;13.90;32.90;;;;;;4994710;28;20895;-68
2023/06/10 03:42:46;;;;;;;9.50;8.50;;;13.90;34.40;;;;;;4994770;28;20603;-68
2023/06/10 03:45:12;;;;;;;9.97;7.80;;;14.00;32.20;;;;;;4994579;28;20197;-69
2023/06/10 03:47:40;;;;;;;10.27;8.53;;;14.00;32.10;;;;;;4994563;28;20181;-68
2023/06/10 03:50:07;;;;;;;10.60;7.07;;;13.90;31.60;;;;;;4993273;28;20186;-68
2023/06/10 03:52:34;;;;;;;9.00;7.90;;;13.90;31.80;;;;;;4994172;28;20436;-68
2023/06/10 03:54:59;;;;;;;7.03;6.20;;;13.90;30.80;;;;;;4994425;28;21003;-68
2023/06/10 03:57:25;;;;;;;8.73;7.93;;;13.90;30.60;;;;;;4994371;28;20564;-67
2023/06/10 03:59:51;;;;;;;8.80;7.60;;;13.90;30.30;;;;;;4994392;28;20181;-68
2023/06/10 04:02:17;;;;;;;9.13;7.53;;;14.00;29.90;;;;;;4993972;28;20515;-68
2023/06/10 04:04:43;;;;;;;10.60;8.23;;;14.10;30.30;;;;;;4993887;28;20386;-67
2023/06/10 04:07:08;;;;;;;9.70;8.30;;;14.10;31.00;;;;;;4993720;28;20439;-68
2023/06/10 04:09:35;;;;;;;11.10;7.80;;;14.20;31.50;;;;;;4994030;28;20200;-68
2023/06/10 04:12:01;;;;;;;9.90;8.43;;;14.20;31.10;;;;;;4992598;28;20646;-69
2023/06/10 04:14:27;;;;;;;9.07;8.00;;;14.20;30.40;;;;;;4994015;28;20478;-68
2023/06/10 04:16:53;;;;;;;9.77;8.80;;;14.30;30.50;;;;;;4993880;28;20634;-69
2023/06/10 04:19:19;;;;;;;8.13;7.43;;;14.30;30.30;;;;;;4993928;28;20417;-68
2023/06/10 04:21:45;;;;;;;7.90;7.10;;;14.30;30.10;;;;;;4993539;28;20231;-69
2023/06/10 04:24:10;;;;;;;9.47;8.40;;;14.30;30.60;;;;;;4993913;28;20854;-68
2023/06/10 04:26:36;;;;;;;9.17;8.20;;;14.40;29.90;;;;;;4993758;28;20262;-68
2023/06/10 04:29:02;;;;;;;10.60;9.20;;;14.40;29.80;;;;;;4993848;28;20178;-69
2023/06/10 04:31:28;;;;;;;10.17;7.73;;;14.30;30.20;;;;;;4993484;28;20470;-71
2023/06/10 04:33:54;;;;;;;8.90;7.50;;;14.40;30.00;;;;;;4993677;28;20616;-68
2023/06/10 04:36:19;;;;;;;9.00;8.10;;;14.50;29.90;;;;;;4994323;28;20217;-69
2023/06/10 04:38:45;;;;;;;8.43;7.63;;;14.50;29.90;;;;;;5010473;28;20441;-68
2023/06/10 04:41:11;;;;;;;11.17;8.57;;;14.50;29.90;;;;;;5013267;28;20191;-69
2023/06/10 04:43:36;;;;;;;7.40;6.60;;;14.60;29.30;;;;;;5012995;28;20187;-69
2023/06/10 04:46:02;;;;;;;10.17;8.77;;;14.70;29.20;;;;;;5013151;28;20198;-68
2023/06/10 04:48:28;;;;;;;8.10;6.53;;;14.80;28.10;;;;;;5013422;28;20335;-68
2023/06/10 04:50:53;;;;;;;9.10;8.20;;;14.90;27.90;;;;;;5013155;28;20197;-68
2023/06/10 04:53:20;;;;;;;8.27;7.43;;;15.00;27.90;;;;;;5012835;28;20611;-69
2023/06/10 04:55:46;;;;;;;7.10;6.40;;;15.10;27.30;;;;;;5014157;28;20341;-69
2023/06/10 04:58:12;;;;;;;9.73;8.43;;;15.10;27.00;;;;;;5014587;28;20448;-69
2023/06/10 05:00:37;;;;;;;9.23;7.77;;;15.20;27.10;;;;;;5014078;28;20445;-69
2023/06/10 05:03:03;;;;;;;8.90;8.00;;;15.30;26.70;;;;;;5014040;28;20263;-69
2023/06/10 05:05:28;;;;;;;9.27;8.17;;;15.40;26.30;;;;;;5013681;28;20691;-69
2023/06/10 05:07:54;;;;;;;9.23;8.33;;;15.50;26.10;;;;;;5008887;28;20321;-69
2023/06/10 05:10:19;;;;;;;8.27;7.33;;;15.60;26.10;;;;;;4994422;28;20212;-69
2023/06/10 05:12:45;;;;;;;9.30;8.37;;;15.80;24.80;;;;;;4994055;28;20184;-69
2023/06/10 05:15:11;;;;;;;8.63;7.53;;;15.90;23.70;;;;;;4993859;28;20214;-69
2023/06/10 05:17:37;;;;;;;7.57;6.87;;;16.00;24.20;;;;;;4994008;28;20434;-69
2023/06/10 05:20:03;;;;;;;9.93;7.27;;;16.10;23.30;;;;;;4993921;28;20826;-69
2023/06/10 05:22:29;;;;;;;7.13;6.43;;;16.20;22.60;;;;;;4993428;28;20220;-69
2023/06/10 05:24:54;;;;;;;7.43;6.70;;;16.40;22.70;;;;;;4993575;28;20427;-69
2023/06/10 05:27:21;;;;;;;7.57;6.30;;;16.50;21.50;;;;;;4993479;28;20555;-69
2023/06/10 05:29:46;;;;;;;7.50;6.80;;;16.70;20.50;;;;;;4993832;28;20189;-69
2023/06/10 05:32:12;;;;;;;10.20;6.97;;;16.80;19.50;;;;;;4993637;28;20850;-69
2023/06/10 05:34:38;;;;;;;9.00;8.10;;;17.00;19.30;;;;;;4992747;28;20211;-68
2023/06/10 05:37:04;;;;;;;6.97;6.03;;;17.20;18.50;;;;;;4993100;28;20188;-69
2023/06/10 05:39:30;;;;;;;7.90;6.47;;;17.50;18.30;;;;;;4993201;28;20191;-68
2023/06/10 05:41:56;;;;;;;13.97;8.30;;;17.80;16.30;;;;;;4991993;28;20463;-69
2023/06/10 05:44:21;;;;;;;7.97;6.90;;;18.40;15.50;;;;;;4993975;28;20176;-69
2023/06/10 05:46:47;;;;;;;7.50;6.80;;;18.80;12.30;;;;;;4993686;28;20486;-69
2023/06/10 05:49:12;;;;;;;8.80;8.00;;;19.00;11.40;;;;;;4991871;28;20194;-69
2023/06/10 05:51:38;;;;;;;8.90;8.00;;;19.40;10.70;;;;;;4992458;28;20198;-68
2023/06/10 05:54:03;;;;;;;7.27;6.40;;;20.60;11.60;;;;;;4992855;28;20579;-69
2023/06/10 05:56:29;;;;;;;10.67;7.67;;;23.00;5.70;;;;;;4992428;28;20686;-69
2023/06/10 05:58:55;;;;;;;9.77;8.67;;;25.00;2.50;;;;;;4992662;28;20665;-68
2023/06/10 06:01:21;;;;;;;9.33;8.50;;;26.60;1.00;;;;;;4992609;28;20204;-70
2023/06/10 06:03:46;;;;;;;7.60;7.00;;;28.00;1.00;;;;;;4992438;28;20420;-68
2023/06/10 06:06:12;;;;;;;8.80;8.20;;;29.10;1.00;;;;;;4993063;28;20353;-70
2023/06/10 06:08:38;;;;;;;8.03;7.43;;;30.90;1.00;;;;;;4993638;28;20200;-70
2023/06/10 06:11:03;;;;;;;23.50;9.87;;;32.60;1.00;;;;;;4994177;28;20251;-69
2023/06/10 06:13:29;;;;;;;8.60;7.70;;;33.00;1.00;;;;;;4993134;28;20188;-70
2023/06/10 06:15:54;;;;;;;9.80;8.90;;;33.40;1.00;;;;;;4993412;28;20205;-69
2023/06/10 06:18:20;;;;;;;10.60;8.70;;;34.90;1.00;;;;;;4993847;28;20187;-70
2023/06/10 06:20:45;;;;;;;9.67;8.30;;;34.90;1.00;;;;;;4996039;28;20669;-70
2023/06/10 06:23:11;;;;;;;7.90;7.30;;;35.90;1.00;;;;;;4995660;28;20720;-68
2023/06/10 06:25:38;;;;;;;9.17;8.47;;;36.60;1.00;;;;;;4995185;28;20266;-68
2023/06/10 06:28:10;;;;;;;8.30;7.70;;;37.50;1.00;;;;;;4995251;28;20706;-68
2023/06/10 06:30:36;;;;;;;9.30;8.53;;;38.00;1.00;;;;;;4997195;28;20784;-69
2023/06/10 06:33:02;;;;;;;10.67;8.77;;;38.30;1.00;;;;;;4998937;28;20420;-69
2023/06/10 06:35:27;;;;;;;9.43;8.67;;;38.70;1.00;;;;;;4999969;28;20212;-68
2023/06/10 06:37:53;;;;;;;8.93;8.23;;;38.60;1.00;;;;;;4999707;28;20419;-69
2023/06/10 06:40:18;;;;;;;8.50;8.00;;;37.90;1.00;;;;;;5000016;28;20184;-69
2023/06/10 06:42:44;;;;;;;8.40;7.50;;;38.10;1.00;;;;;;4999178;28;20262;-69
2023/06/10 06:45:10;;;;;;;8.83;8.13;;;38.60;1.00;;;;;;4997266;28;20447;-68
2023/06/10 06:47:36;;;;;;;10.00;9.20;;;38.40;1.00;;;;;;4996190;28;20177;-68
2023/06/10 06:50:02;;;;;;;8.43;7.80;;;39.00;1.00;;;;;;4996211;28;20180;-68
2023/06/10 06:52:28;;;;;;;8.43;7.83;;;38.00;1.00;;;;;;4996983;28;20589;-69
2023/06/10 06:54:53;;;;;;;8.87;8.27;;;38.70;1.00;;;;;;4995798;28;20422;-68
2023/06/10 06:57:19;;;;;;;9.00;8.30;;;38.00;1.00;;;;;;4995830;28;20977;-68
2023/06/10 06:59:45;;;;;;;9.70;8.90;;;38.80;1.00;;;;;;4995791;28;20184;-69
2023/06/10 07:02:10;;;;;;;9.47;8.77;;;37.60;1.00;;;;;;4995457;28;20204;-71
2023/06/10 07:04:36;;;;;;;9.00;8.20;;;37.20;1.00;;;;;;4995847;28;20545;-70
2023/06/10 07:07:02;;;;;;;9.77;8.93;;;36.50;1.00;;;;;;4995971;28;20177;-68
2023/06/10 07:09:28;;;;;;;11.23;10.33;;;37.50;1.00;;;;;;4996149;28;20426;-68
2023/06/10 07:11:53;;;;;;;10.33;9.53;;;37.30;1.00;;;;;;4995409;28;20991;-68
2023/06/10 07:14:19;;;;;;;8.87;8.17;;;37.80;1.00;;;;;;4995771;28;20750;-69
2023/06/10 07:16:45;;;;;;;9.80;9.03;;;38.60;1.00;;;;;;4995715;28;20193;-70
2023/06/10 07:19:11;;;;;;;9.00;8.37;;;38.20;1.00;;;;;;4995518;28;20184;-68
2023/06/10 07:21:37;;;;;;;9.20;8.60;;;38.80;1.00;;;;;;4993610;28;20470;-69
2023/06/10 07:24:03;;;;;;;9.17;8.47;;;39.00;1.00;;;;;;4975292;28;20217;-69
2023/06/10 07:26:29;;;;;;;8.90;8.30;;;39.00;1.00;;;;;;4975703;28;20467;-69
2023/06/10 07:28:54;;;;;;;9.23;8.30;;;39.00;1.00;;;;;;4975649;28;20189;-69
2023/06/10 07:31:20;;;;;;;8.80;8.20;;;39.30;1.00;;;;;;4975802;28;20184;-69
2023/06/10 07:33:47;;;;;;;9.57;8.87;;;39.30;1.00;;;;;;4975553;28;20674;-68
2023/06/10 07:36:12;;;;;;;31.93;14.63;;;39.50;1.00;;;;;;4975576;28;20213;-68
2023/06/10 07:38:38;;;;;;;11.87;10.63;;;39.20;1.00;;;;;;4975902;28;20408;-68
2023/06/10 07:41:03;;;;;;;8.30;7.60;;;40.00;1.00;;;;;;4974432;28;20454;-69
2023/06/10 07:43:29;;;;;;;9.20;8.57;;;39.60;1.00;;;;;;4975677;28;20209;-68
2023/06/10 07:45:55;;;;;;;10.50;9.50;;;39.10;1.00;;;;;;4990516;28;20193;-68
2023/06/10 07:48:20;;;;;;;9.20;8.60;;;39.00;1.00;;;;;;4975233;28;20188;-69
2023/06/10 07:50:46;;;;;;;7.70;6.93;;;38.30;1.00;;;;;;4975282;28;20201;-69
2023/06/10 07:53:11;;;;;;;8.20;7.60;;;38.90;1.00;;;;;;4975004;28;20569;-69
2023/06/10 07:55:37;;;;;;;9.87;9.17;;;38.70;1.00;;;;;;4974940;28;20201;-69
2023/06/10 07:58:02;;;;;;;8.10;7.50;;;38.70;1.00;;;;;;4974963;28;20177;-69
2023/06/10 08:00:28;;;;;;;8.70;8.10;;;39.70;1.00;;;;;;4990077;28;20184;-69
2023/06/10 08:02:53;;;;;;;8.17;7.67;;;38.60;1.00;;;;;;4974809;28;20217;-69
2023/06/10 08:05:20;;;;;;;8.57;7.77;;;39.20;1.00;;;;;;4974975;28;20193;-69
2023/06/10 08:07:45;;;;;;;8.67;8.07;;;38.80;1.00;;;;;;4977640;28;20260;-69
2023/06/10 08:10:11;;;;;;;8.40;7.80;;;37.90;1.00;;;;;;4994178;28;20543;-69
2023/06/10 08:12:37;;;;;;;8.90;8.23;;;37.80;1.00;;;;;;4994140;28;20185;-69
2023/06/10 08:15:05;;;;;;;8.57;7.93;;;38.60;1.00;;;;;;4994139;28;20229;-69
2023/06/10 08:17:31;;;;;;;9.40;8.50;;;38.70;1.00;;;;;;4984147;28;20185;-67
2023/06/10 08:19:56;;;;;;;8.80;8.10;;;37.90;1.00;;;;;;4973415;28;20412;-68
2023/06/10 08:22:22;;;;;;;8.10;7.53;;;37.50;1.00;;;;;;4974661;28;20209;-69
2023/06/10 08:24:48;;;;;;;8.60;7.93;;;38.30;1.00;;;;;;4974885;28;20236;-68
2023/06/10 08:27:13;;;;;;;8.10;7.60;;;38.30;1.00;;;;;;4974716;28;20177;-69
2023/06/10 08:29:39;;;;;;;9.13;8.33;;;38.50;1.00;;;;;;4974662;28;20593;-69
2023/06/10 08:32:05;;;;;;;8.43;7.63;;;38.70;1.00;;;;;;4974716;28;20710;-69
2023/06/10 08:34:34;;;;;;;10.20;7.90;;;38.40;1.00;;;;;;4974560;28;20450;-69
2023/06/10 08:36:59;;;;;;;9.50;8.70;;;38.20;1.00;;;;;;4974332;28;20504;-69
2023/06/10 08:39:25;;;;;;;7.63;7.07;;;38.30;1.00;;;;;;4974814;28;20443;-68
2023/06/10 08:42:09;;;;;;;8.03;7.47;;;37.10;1.00;;;;;;4970217;28;20248;-68
2023/06/10 08:44:38;;;;;;;7.60;7.00;;;37.90;1.00;;;;;;4969002;28;20189;-68
2023/06/10 08:47:11;;;;;;;7.90;7.40;;;37.60;1.00;;;;;;4970070;28;20413;-69
2023/06/10 08:49:43;;;;;;;8.87;8.27;;;38.90;1.00;;;;;;4969967;28;20926;-68
2023/06/10 08:52:14;;;;;;;7.23;6.73;;;39.20;1.00;;;;;;4969525;28;20424;-66
2023/06/10 08:54:46;;;;;;;7.83;7.27;;;39.30;1.00;;;;;;4970919;28;20409;-67
2023/06/10 08:57:13;;;;;;;8.17;7.67;;;39.10;1.00;;;;;;4970606;28;21851;-68
2023/06/10 08:59:39;;;;;;;7.10;6.60;;;38.50;1.00;;;;;;4968597;28;20424;-68
2023/06/10 09:02:06;;;;;;;7.30;6.70;;;38.20;1.00;;;;;;4969969;28;20464;-68
2023/06/10 09:04:33;;;;;;;6.60;6.07;;;35.00;1.00;;;;;;4970301;28;20440;-69
2023/06/10 09:07:00;;;;;;;6.90;6.50;;;36.10;1.00;;;;;;4969815;28;20443;-69
2023/06/10 09:09:28;;;;;;;7.43;6.93;;;36.50;1.00;;;;;;4985809;28;20829;-69
2023/06/10 09:11:53;;;;;;;7.40;6.90;;;37.60;1.00;;;;;;4989779;28;20436;-73
2023/06/10 09:14:19;;;;;;;7.77;7.07;;;37.40;1.00;;;;;;4988596;28;20430;-68
2023/06/10 09:16:46;;;;;;;8.07;6.77;;;36.80;1.00;;;;;;4988505;28;20201;-68
2023/06/10 09:19:12;;;;;;;6.93;6.37;;;34.70;1.00;;;;;;4989925;28;20792;-68
2023/06/10 09:21:38;;;;;;;6.60;6.10;;;32.70;1.00;;;;;;4986746;28;20456;-69
2023/06/10 09:24:05;;;;;;;6.93;6.43;;;30.90;1.00;;;;;;4999464;28;20451;-69
2023/06/10 09:26:30;;;;;;;6.20;5.80;;;29.50;1.00;;;;;;4974865;28;20688;-68
2023/06/10 09:29:08;;;;;;;5.93;5.50;;;29.10;1.00;;;;;;4969047;28;20507;-68
2023/06/10 09:31:36;;;;;;;8.43;6.00;;;28.60;1.00;;;;;;4968908;28;20185;-69
2023/06/10 09:34:07;;;;;;;5.97;5.57;;;28.30;1.00;;;;;;4969372;28;20441;-69
2023/06/10 09:36:34;;;;;;;6.03;5.63;;;27.90;1.00;;;;;;4969280;28;20468;-68
2023/06/10 09:39:00;;;;;;;6.83;6.13;;;27.70;1.00;;;;;;4969844;28;20421;-68
2023/06/10 09:41:33;;;;;;;5.40;5.10;;;27.70;1.00;;;;;;4969086;28;20456;-69
2023/06/10 09:43:59;;;;;;;5.73;5.33;;;27.30;1.00;;;;;;4970805;28;20189;-68
2023/06/10 09:46:29;;;;;;;5.97;5.57;;;27.00;1.00;;;;;;4973529;28;20788;-68
2023/06/10 09:48:57;;;;;;;6.50;5.90;;;26.90;1.00;;;;;;4974774;28;20173;-68
2023/06/10 09:51:23;;;;;;;5.67;5.27;;;26.80;1.00;;;;;;4973355;28;20511;-68
2023/06/10 09:53:51;;;;;;;6.43;5.83;;;26.90;1.00;;;;;;4973183;28;20500;-68
2023/06/10 09:56:16;;;;;;;6.23;5.83;;;27.10;1.00;;;;;;4973473;28;20276;-68
2023/06/10 09:58:43;;;;;;;6.43;5.27;;;27.30;1.00;;;;;;4973022;28;21014;-68
2023/06/10 10:01:11;;;;;;;6.80;6.30;;;27.40;1.00;;;;;;4973163;28;20577;-68
2023/06/10 10:03:47;;;;;;;6.33;5.90;;;27.30;1.00;;;;;;4973839;28;20446;-68
2023/06/10 10:06:14;;;;;;;6.67;6.17;;;27.30;1.00;;;;;;4977170;28;20452;-68
2023/06/10 10:08:40;;;;;;;5.87;5.30;;;27.10;1.00;;;;;;4987244;28;20499;-69
2023/06/10 10:11:06;;;;;;;6.00;5.57;;;26.90;1.00;;;;;;4996601;28;20494;-69
2023/06/10 10:13:34;;;;;;;6.37;5.97;;;26.90;1.00;;;;;;4996193;28;20177;-68
2023/06/10 10:16:04;;;;;;;6.87;6.37;;;26.90;1.00;;;;;;4990610;28;20676;-69
2023/06/10 10:18:31;;;;;;;5.43;5.07;;;26.80;1.00;;;;;;4973639;28;20427;-70
2023/06/10 10:21:05;;;;;;;7.13;6.53;;;26.90;1.00;;;;;;4973268;28;21135;-69
2023/06/10 10:24:12;;;;;;;6.93;6.43;;;27.40;1.00;;;;;;4972450;28;20852;-69
2023/06/10 10:26:39;;;;;;;6.43;6.03;;;27.50;1.00;;;;;;4965416;28;20496;-69
2023/06/10 10:29:16;;;;;;;5.40;5.10;;;27.60;1.00;;;;;;4972430;28;20451;-69
2023/06/10 10:31:46;;;;;;;6.00;5.60;;;27.40;1.00;;;;;;4976164;28;20427;-68
2023/06/10 10:34:21;;;;;;;6.17;5.67;;;27.00;1.00;;;;;;4976633;28;20423;-68
2023/06/10 10:36:48;;;;;;;7.00;6.50;;;27.00;1.00;;;;;;4977137;28;20471;-68
2023/06/10 10:39:15;;;;;;;6.30;5.80;;;26.90;1.00;;;;;;4976942;28;20420;-69
2023/06/10 10:41:41;;;;;;;6.70;6.20;;;26.70;1.00;;;;;;4976326;28;20483;-69
2023/06/10 10:44:11;;;;;;;6.90;6.40;;;26.80;1.00;;;;;;4976607;28;20413;-69
2023/06/10 10:46:44;;;;;;;6.10;5.67;;;26.80;1.00;;;;;;4976326;28;20855;-69
2023/06/10 10:49:12;;;;;;;7.40;6.70;;;26.90;1.00;;;;;;4976557;28;20544;-69
2023/06/10 10:51:53;;;;;;;7.00;6.53;;;27.30;1.00;;;;;;4976197;28;20420;-69
2023/06/10 10:54:29;;;;;;;7.50;7.00;;;27.60;1.00;;;;;;4976397;28;20420;-68
2023/06/10 10:57:12;;;;;;;6.93;6.43;;;27.60;1.00;;;;;;4976660;28;20432;-70
2023/06/10 10:59:59;;;;;;;6.83;6.17;;;27.50;1.00;;;;;;4976361;28;20412;-68
2023/06/10 11:02:43;;;;;;;6.83;6.33;;;27.60;1.00;;;;;;4977376;28;20461;-68
2023/06/10 11:05:15;;;;;;;7.00;5.70;;;27.60;1.00;;;;;;4991357;28;20459;-69
2023/06/10 11:07:52;;;;;;;7.00;6.40;;;27.50;1.00;;;;;;4996923;28;20416;-69
2023/06/10 11:10:32;;;;;;;11.00;9.40;;;26.90;1.00;;;;;;4986092;28;20786;-70
2023/06/10 11:12:58;;;;;;;7.20;6.60;;;26.70;1.00;;;;;;4977328;28;20936;-69
2023/06/10 11:15:27;;;;;;;6.57;6.07;;;26.70;1.00;;;;;;4983590;28;20446;-69
2023/06/10 11:18:10;;;;;;;6.47;5.87;;;27.10;1.00;;;;;;4985546;28;20685;-69
2023/06/10 11:21:04;;;;;;;6.77;6.23;;;27.80;1.00;;;;;;5006380;28;20491;-69
2023/06/10 11:23:37;;;;;;;6.67;6.17;;;27.80;1.00;;;;;;4975478;28;20464;-69
2023/06/10 11:26:14;;;;;;;6.77;6.20;;;27.80;1.00;;;;;;4975550;28;20432;-69
2023/06/10 11:28:41;;;;;;;6.50;6.00;;;27.60;1.00;;;;;;4975706;28;20459;-70
2023/06/10 11:31:08;;;;;;;7.10;6.60;;;27.50;1.00;;;;;;4975334;28;20409;-69
2023/06/10 11:33:38;;;;;;;6.57;5.93;;;27.20;1.00;;;;;;4974730;28;20893;-69
2023/06/10 11:36:07;;;;;;;6.30;5.87;;;27.10;1.00;;;;;;4973847;28;20447;-69
2023/06/10 11:38:33;;;;;;;7.03;6.43;;;27.50;1.00;;;;;;4974300;28;20401;-69
2023/06/10 11:40:59;;;;;;;7.20;6.57;;;28.00;1.00;;;;;;4974124;28;20430;-68
2023/06/10 11:43:25;;;;;;;7.37;6.87;;;28.40;1.00;;;;;;4973806;28;20205;-69
2023/06/10 11:45:55;;;;;;;6.77;6.17;;;28.30;1.00;;;;;;4974243;28;20794;-67
2023/06/10 11:48:21;;;;;;;6.23;5.83;;;28.10;1.00;;;;;;4975000;28;20415;-67
2023/06/10 11:50:46;;;;;;;6.40;5.90;;;28.00;1.00;;;;;;4974851;28;20905;-67
2023/06/10 11:53:12;;;;;;;7.00;6.40;;;27.90;1.00;;;;;;4978919;28;20196;-68
2023/06/10 11:55:42;;;;;;;7.03;6.53;;;27.80;1.00;;;;;;4989468;28;20599;-68
2023/06/10 11:58:18;;;;;;;6.23;5.80;;;27.60;1.00;;;;;;4988536;28;20223;-66
2023/06/10 12:00:48;;;;;;;7.83;7.27;;;27.40;1.00;;;;;;4990830;28;20444;-68
2023/06/10 12:03:13;;;;;;;6.67;6.17;;;27.30;1.00;;;;;;4992672;28;20456;-68
2023/06/10 12:05:39;;;;;;;6.20;5.80;;;27.40;1.00;;;;;;4993184;28;20447;-69
2023/06/10 12:08:10;;;;;;;6.17;5.77;;;27.60;1.00;;;;;;4993335;28;20261;-69
2023/06/10 12:10:41;;;;;;;6.00;5.60;;;27.90;1.00;;;;;;4992091;28;20172;-67
2023/06/10 12:13:07;;;;;;;6.10;5.70;;;28.10;1.00;;;;;;4993211;28;20424;-68
2023/06/10 12:15:33;;;;;;;7.00;6.30;;;28.20;1.00;;;;;;4992819;28;20817;-68
2023/06/10 12:17:58;;;;;;;6.83;6.33;;;28.20;1.00;;;;;;4990407;28;20432;-70
2023/06/10 12:20:27;;;;;;;7.93;6.60;;;28.10;1.00;;;;;;4989039;28;20180;-69
2023/06/10 12:22:53;;;;;;;5.83;5.40;;;28.00;1.00;;;;;;4988731;28;20279;-69
2023/06/10 12:25:28;;;;;;;6.50;6.00;;;27.90;1.00;;;;;;4989690;28;21157;-71
2023/06/10 12:27:56;;;;;;;7.30;6.60;;;27.90;1.00;;;;;;4988901;28;20188;-69
2023/06/10 12:30:26;;;;;;;6.47;6.07;;;28.20;1.00;;;;;;4989159;28;20416;-70
2023/06/10 12:32:55;;;;;;;6.33;5.87;;;28.30;1.00;;;;;;4988473;28;20424;-70
2023/06/10 12:35:25;;;;;;;7.03;6.43;;;28.20;1.00;;;;;;4951237;28;1055900;-69
2023/06/10 12:37:56;;;;;;;6.10;5.70;;;28.30;1.00;;;;;;4990167;28;20561;-70
2023/06/10 12:40:33;;;;;;;7.00;6.50;;;28.50;1.00;;;;;;4992611;28;20778;-68
2023/06/10 12:42:59;;;;;;;6.13;5.73;;;28.60;1.00;;;;;;4993723;28;20463;-68
2023/06/10 12:45:36;;;;;;;7.67;7.10;;;28.90;1.00;;;;;;4978473;28;20468;-68
2023/06/10 12:48:31;;;;;;;6.83;6.30;;;29.10;1.00;;;;;;4974049;28;20455;-68
2023/06/10 12:50:58;;;;;;;6.03;5.63;;;29.40;1.00;;;;;;4960892;28;20429;-68
2023/06/10 12:53:26;;;;;;;5.97;5.53;;;29.20;1.00;;;;;;4973893;28;20926;-68